Scotland, Georgia
Current Conditions -  °F | °C
As of 8:55 AM on Saturday 22 Nov 2014 (Local Time) from KAZE Reporting Station
Broken Clouds Broken Clouds  
Wind Chill: 50°   Ceiling: 5000
Heat Index: 50°   Visibility: 10mi
Dew Point: 42°   Wind: 8mph
Humidity: 73%   Direction: 70°ENE
Pressure: 30.42"   Gusts: NA
Location:  32.05°N, 82.82°W
Report Text: KAZE 221355Z AUTO 07007KT 10SM BKN050 10/06 A3042 RMK AO2 T01010055
Loading
Personal Weather Stations






























Interactive Weather Map New forecast layout! Learn more

10-Day Weather Forecast

Advertisements
Track Severe Weather on mobile